createdAt,value
2023-04-10T00:02:04.291Z,22.50
2023-04-10T00:04:32.569Z,21.67
2023-04-10T00:07:00.507Z,21.83
2023-04-10T00:09:29.655Z,22.47
2023-04-10T00:11:57.700Z,23.63
2023-04-10T00:14:25.627Z,23.83
2023-04-10T00:16:55.017Z,24.20
2023-04-10T00:19:22.912Z,22.80
2023-04-10T00:21:50.702Z,23.50
2023-04-10T00:24:18.594Z,21.10
2023-04-10T00:26:46.371Z,22.10
2023-04-10T00:29:14.128Z,22.17
2023-04-10T00:31:42.038Z,24.23
2023-04-10T00:34:11.952Z,23.03
2023-04-10T00:36:39.731Z,23.27
2023-04-10T00:39:08.689Z,24.50
2023-04-10T00:41:36.493Z,24.30
2023-04-10T00:44:04.355Z,23.63
2023-04-10T00:46:35.391Z,22.60
2023-04-10T00:49:03.486Z,18.80
2023-04-10T00:51:35.481Z,19.50
2023-04-10T00:54:03.479Z,19.40
2023-04-10T00:56:33.001Z,16.83
2023-04-10T00:59:04.068Z,19.43
2023-04-10T01:01:33.054Z,17.27
2023-04-10T01:04:01.327Z,19.33
2023-04-10T01:06:46.099Z,18.57
2023-04-10T01:09:26.828Z,20.53
2023-04-10T01:11:56.364Z,20.13
2023-04-10T01:14:31.991Z,19.93
2023-04-10T01:17:06.301Z,18.00
2023-04-10T01:20:03.173Z,19.37
2023-04-10T01:22:36.871Z,19.07
2023-04-10T01:25:20.598Z,24.43
2023-04-10T01:28:02.192Z,21.17
2023-04-10T01:30:33.487Z,21.73
2023-04-10T01:33:02.973Z,21.50
2023-04-10T01:35:32.751Z,21.10
2023-04-10T01:38:03.069Z,21.97
2023-04-10T01:40:32.763Z,22.00
2023-04-10T01:43:03.087Z,22.80
2023-04-10T01:45:33.602Z,25.07
2023-04-10T01:48:01.958Z,23.70
2023-04-10T01:50:31.593Z,24.33
2023-04-10T01:53:00.595Z,22.43
2023-04-10T01:55:29.011Z,25.13
2023-04-10T01:57:57.303Z,25.30
2023-04-10T02:00:25.250Z,27.20
2023-04-10T02:02:54.638Z,26.13
2023-04-10T02:05:23.800Z,26.83
2023-04-10T02:08:00.828Z,25.50
2023-04-10T02:10:35.188Z,24.87
2023-04-10T02:13:08.253Z,23.97
2023-04-10T02:15:38.024Z,24.60
2023-04-10T02:18:08.260Z,23.37
2023-04-10T02:20:37.346Z,25.27
2023-04-10T02:23:05.569Z,25.70
2023-04-10T02:25:34.214Z,26.83
2023-04-10T02:28:05.313Z,26.50
2023-04-10T02:30:33.377Z,25.93
2023-04-10T02:33:01.630Z,26.97
2023-04-10T02:35:31.072Z,27.43
2023-04-10T02:37:58.912Z,27.57
2023-04-10T02:40:26.740Z,27.80
2023-04-10T02:42:54.488Z,42.77
2023-04-10T02:45:22.323Z,26.63
2023-04-10T02:47:50.417Z,29.27
2023-04-10T02:50:18.421Z,27.00
2023-04-10T02:52:47.616Z,28.90
2023-04-10T02:55:15.523Z,28.63
2023-04-10T02:57:43.686Z,29.20
2023-04-10T03:00:13.075Z,27.60
2023-04-10T03:02:40.981Z,28.70
2023-04-10T03:05:09.579Z,29.60
2023-04-10T03:07:37.450Z,27.73
2023-04-10T03:10:07.707Z,27.93
2023-04-10T03:12:35.478Z,27.83
2023-04-10T03:15:03.211Z,27.97
2023-04-10T03:17:31.064Z,28.03
2023-04-10T03:19:58.980Z,27.70
2023-04-10T03:22:27.530Z,28.87
2023-04-10T03:24:55.618Z,28.67
2023-04-10T03:27:25.422Z,28.90
2023-04-10T03:29:53.240Z,27.27
2023-04-10T03:32:21.149Z,26.67
2023-04-10T03:34:49.020Z,28.77
2023-04-10T03:37:16.865Z,28.60
2023-04-10T03:39:44.633Z,27.90
2023-04-10T03:42:12.558Z,29.73
2023-04-10T03:44:41.888Z,27.20
2023-04-10T03:47:09.898Z,26.20
2023-04-10T03:49:37.777Z,26.43
2023-04-10T03:52:05.807Z,26.37
2023-04-10T03:54:33.591Z,25.07
2023-04-10T03:57:02.102Z,23.40
2023-04-10T03:59:38.266Z,23.97
2023-04-10T04:02:09.259Z,25.17
2023-04-10T04:04:37.402Z,24.53
2023-04-10T04:07:05.517Z,24.27
2023-04-10T04:09:33.624Z,22.60
2023-04-10T04:12:01.591Z,25.03
2023-04-10T04:14:29.431Z,24.47
2023-04-10T04:16:57.452Z,24.27
2023-04-10T04:19:26.761Z,25.50
2023-04-10T04:21:54.536Z,24.90
2023-04-10T04:24:22.775Z,24.47
2023-04-10T04:26:50.480Z,25.13
2023-04-10T04:29:18.294Z,24.07
2023-04-10T04:31:46.216Z,25.87
2023-04-10T04:34:14.033Z,25.33
2023-04-10T04:36:43.641Z,26.47
2023-04-10T04:39:11.457Z,27.97
2023-04-10T04:41:39.249Z,28.83
2023-04-10T04:44:07.165Z,25.87
2023-04-10T04:46:34.955Z,26.27
2023-04-10T04:49:02.781Z,26.80
2023-04-10T04:51:30.807Z,25.97
2023-04-10T04:53:59.933Z,26.67
2023-04-10T04:56:27.938Z,25.20
2023-04-10T04:58:55.976Z,25.23
2023-04-10T05:01:23.932Z,27.17
2023-04-10T05:03:51.833Z,24.20
2023-04-10T05:06:20.333Z,26.60
2023-04-10T05:08:48.112Z,26.40
2023-04-10T05:11:17.235Z,24.73
2023-04-10T05:13:45.123Z,26.13
2023-04-10T05:16:13.122Z,24.53
2023-04-10T05:18:42.758Z,25.73
2023-04-10T05:21:10.493Z,24.80
2023-04-10T05:23:38.337Z,23.80
2023-04-10T05:26:06.545Z,24.87
2023-04-10T05:28:35.868Z,25.30
2023-04-10T05:31:03.671Z,23.10
2023-04-10T05:33:31.487Z,23.47
2023-04-10T05:35:59.505Z,22.77
2023-04-10T05:38:27.302Z,21.30
2023-04-10T05:40:56.013Z,21.63
2023-04-10T05:43:23.805Z,20.10
2023-04-10T05:45:53.147Z,20.07
2023-04-10T05:48:20.932Z,21.00
2023-04-10T05:50:48.682Z,18.67
2023-04-10T05:53:18.984Z,19.57
2023-04-10T05:55:46.677Z,18.20
2023-04-10T05:58:14.479Z,18.63
2023-04-10T06:00:42.269Z,18.57
2023-04-10T06:03:11.491Z,18.73
2023-04-10T06:05:41.266Z,17.47
2023-04-10T06:08:09.128Z,15.93
2023-04-10T06:10:37.081Z,15.60
2023-04-10T06:13:05.004Z,15.37
2023-04-10T06:15:33.006Z,16.77
2023-04-10T06:18:00.737Z,15.00
2023-04-10T06:20:29.951Z,14.43
2023-04-10T06:22:58.078Z,15.70
2023-04-10T06:25:26.525Z,14.60
2023-04-10T06:27:54.257Z,14.83
2023-04-10T06:30:22.190Z,14.63
2023-04-10T06:32:50.044Z,15.10
2023-04-10T06:35:17.858Z,14.10
2023-04-10T06:37:46.966Z,14.40
2023-04-10T06:40:15.916Z,14.87
2023-04-10T06:42:44.167Z,15.33
2023-04-10T06:45:12.297Z,14.83
2023-04-10T06:47:40.263Z,16.43
2023-04-10T06:50:08.388Z,16.57
2023-04-10T06:52:36.161Z,16.80
2023-04-10T06:55:06.469Z,20.10
2023-04-10T06:57:34.311Z,19.63
2023-04-10T07:00:02.177Z,21.20
2023-04-10T07:02:30.083Z,21.80
2023-04-10T07:04:58.248Z,22.23
2023-04-10T07:07:26.674Z,22.93
2023-04-10T07:09:54.588Z,21.17
2023-04-10T07:12:23.691Z,23.50
2023-04-10T07:14:51.464Z,24.20
2023-04-10T07:17:19.392Z,24.10
2023-04-10T07:19:47.270Z,24.23
2023-04-10T07:22:15.833Z,23.40
2023-04-10T07:24:44.228Z,25.17
2023-04-10T07:27:12.334Z,26.20
2023-04-10T07:29:41.545Z,25.27
2023-04-10T07:32:09.477Z,25.17
2023-04-10T07:34:37.702Z,27.27
2023-04-10T07:37:05.728Z,24.37
2023-04-10T07:39:33.610Z,25.27
2023-04-10T07:42:01.574Z,25.70
2023-04-10T07:44:29.683Z,25.40
2023-04-10T07:46:58.929Z,25.93
2023-04-10T07:49:27.075Z,25.77
2023-04-10T07:51:54.830Z,26.17
2023-04-10T07:54:22.757Z,26.37
2023-04-10T07:56:53.227Z,25.17
2023-04-10T07:59:21.144Z,24.77
2023-04-10T08:01:48.980Z,24.43
2023-04-10T08:04:18.716Z,25.00
2023-04-10T08:06:46.688Z,24.30
2023-04-10T08:09:17.425Z,26.63
2023-04-10T08:11:45.306Z,26.03
2023-04-10T08:14:13.601Z,25.83
2023-04-10T08:16:46.370Z,26.67
2023-04-10T08:19:14.171Z,25.97
2023-04-10T08:21:43.314Z,25.40
2023-04-10T08:24:11.108Z,23.63
2023-04-10T08:26:39.024Z,21.70
2023-04-10T08:29:07.507Z,19.37
2023-04-10T08:31:35.821Z,23.40
2023-04-10T08:34:04.779Z,22.50
2023-04-10T08:36:33.149Z,23.13
2023-04-10T08:39:02.359Z,22.13
2023-04-10T08:41:30.186Z,19.50
2023-04-10T08:43:58.659Z,19.53
2023-04-10T08:46:27.368Z,19.40
2023-04-10T08:49:02.422Z,19.23
2023-04-10T08:51:33.691Z,18.67
2023-04-10T08:54:07.879Z,18.53
2023-04-10T08:56:38.430Z,17.03
2023-04-10T08:59:06.701Z,18.77
2023-04-10T09:01:35.866Z,17.60
2023-04-10T09:04:04.125Z,17.47
2023-04-10T09:06:32.154Z,17.80
2023-04-10T09:12:07.403Z,18.53
2023-04-10T09:14:38.123Z,18.47
2023-04-10T09:17:15.021Z,17.43
2023-04-10T09:19:43.404Z,15.67
2023-04-10T09:22:11.496Z,15.00
2023-04-10T09:24:43.239Z,15.80
2023-04-10T09:27:11.168Z,15.17
2023-04-10T09:29:49.190Z,15.17
2023-04-10T09:32:38.383Z,14.23
2023-04-10T09:35:07.333Z,14.40
2023-04-10T09:37:35.730Z,14.83
2023-04-10T09:40:04.131Z,14.97
2023-04-10T09:42:33.710Z,14.20
2023-04-10T09:45:03.075Z,14.13
2023-04-10T09:47:31.640Z,14.10
2023-04-10T09:50:01.461Z,14.30
2023-04-10T09:52:30.273Z,13.80
2023-04-10T09:54:59.452Z,14.03
2023-04-10T09:57:30.046Z,14.17
2023-04-10T09:59:59.577Z,13.57
2023-04-10T10:02:31.031Z,14.37
2023-04-10T10:05:01.678Z,14.03
2023-04-10T10:07:31.135Z,14.47
2023-04-10T10:09:59.832Z,14.07
2023-04-10T10:12:36.261Z,12.30
2023-04-10T10:15:10.105Z,12.17
2023-04-10T10:17:46.606Z,12.00
2023-04-10T10:20:18.733Z,12.20
2023-04-10T10:22:47.764Z,11.47
2023-04-10T10:25:15.652Z,11.63
2023-04-10T10:27:44.426Z,11.63
2023-04-10T10:30:27.967Z,10.23
2023-04-10T10:33:00.255Z,9.70
2023-04-10T10:35:29.834Z,10.03
2023-04-10T10:38:00.468Z,8.93
2023-04-10T10:40:33.436Z,9.60
2023-04-10T10:43:10.100Z,9.63
2023-04-10T10:45:46.440Z,8.53
2023-04-10T10:48:15.777Z,7.37
2023-04-10T10:50:53.439Z,7.43
2023-04-10T10:53:35.469Z,8.87
2023-04-10T10:56:37.075Z,8.53
2023-04-10T10:59:04.946Z,7.20
2023-04-10T11:01:32.924Z,7.00
2023-04-10T11:04:02.292Z,7.53
2023-04-10T11:06:53.096Z,7.73
2023-04-10T11:09:47.919Z,6.57
2023-04-10T11:12:16.723Z,7.30
2023-04-10T11:14:46.337Z,7.40
2023-04-10T11:17:14.069Z,7.10
2023-04-10T11:20:08.176Z,13.07
2023-04-10T11:23:11.113Z,8.57
2023-04-10T11:25:52.564Z,8.43
2023-04-10T11:28:39.450Z,9.50
2023-04-10T11:31:22.202Z,9.67
2023-04-10T11:33:52.166Z,9.27
2023-04-10T11:36:20.063Z,10.67
2023-04-10T11:39:00.010Z,9.70
2023-04-10T11:41:30.547Z,9.83
2023-04-10T11:43:58.949Z,9.50
2023-04-10T11:46:26.895Z,9.53
2023-04-10T11:48:56.908Z,9.07
2023-04-10T11:51:24.881Z,8.97
2023-04-10T11:54:08.399Z,9.23
2023-04-10T11:56:36.992Z,10.33
2023-04-10T11:59:07.845Z,9.00
2023-04-10T12:01:35.828Z,8.70
2023-04-10T12:04:03.941Z,7.10
2023-04-10T12:06:32.823Z,6.60
2023-04-10T12:09:00.624Z,7.27
2023-04-10T12:11:29.790Z,7.57
2023-04-10T12:14:01.539Z,9.20
2023-04-10T12:16:29.437Z,7.67
2023-04-10T12:18:58.051Z,7.17
2023-04-10T12:21:26.274Z,7.00
2023-04-10T12:23:54.121Z,6.73
2023-04-10T12:26:22.361Z,6.23
2023-04-10T12:28:55.701Z,6.47
2023-04-10T12:31:31.369Z,4.70
2023-04-10T12:33:59.941Z,5.97
2023-04-10T12:36:30.178Z,6.10
2023-04-10T12:38:58.639Z,5.27
2023-04-10T12:41:27.731Z,5.53
2023-04-10T12:44:09.496Z,5.97
2023-04-10T12:46:37.447Z,5.23
2023-04-10T12:49:13.423Z,6.07
2023-04-10T12:51:48.576Z,6.53
2023-04-10T12:54:30.460Z,7.07
2023-04-10T12:56:59.145Z,6.77
2023-04-10T12:59:28.942Z,5.70
2023-04-10T13:01:57.140Z,7.43
2023-04-10T13:04:25.257Z,5.67
2023-04-10T13:06:53.683Z,7.70
2023-04-10T13:09:21.716Z,6.40
2023-04-10T13:11:51.556Z,13.47
2023-04-10T13:14:19.636Z,5.47
2023-04-10T13:16:48.991Z,6.27
2023-04-10T13:19:16.800Z,6.60
2023-04-10T13:21:44.625Z,7.03
2023-04-10T13:24:14.142Z,6.90
2023-04-10T13:26:43.091Z,6.60
2023-04-10T13:29:10.959Z,7.13
2023-04-10T13:31:40.706Z,7.20
2023-04-10T13:34:09.869Z,7.67
2023-04-10T13:36:37.775Z,6.80
2023-04-10T13:39:05.664Z,7.23
2023-04-10T13:41:33.460Z,6.50
2023-04-10T13:44:01.181Z,6.97
2023-04-10T13:46:28.882Z,7.23
2023-04-10T13:48:57.026Z,6.17
2023-04-10T13:51:26.534Z,5.70
2023-04-10T13:53:54.360Z,6.23
2023-04-10T13:56:22.124Z,7.27
2023-04-10T13:58:50.020Z,6.73
2023-04-10T14:01:17.894Z,6.10
2023-04-10T14:03:46.027Z,6.37
2023-04-10T14:06:14.174Z,6.00
2023-04-10T14:08:45.788Z,6.20
2023-04-10T14:11:13.538Z,6.70
2023-04-10T14:13:41.306Z,6.33
2023-04-10T14:16:09.647Z,5.83
2023-04-10T14:18:37.751Z,7.00
2023-04-10T14:21:07.505Z,6.90
2023-04-10T14:23:35.330Z,6.87
2023-04-10T14:26:06.113Z,6.87
2023-04-10T14:28:33.870Z,7.90
2023-04-10T14:31:01.872Z,6.97
2023-04-10T14:33:29.784Z,7.80
2023-04-10T14:35:57.606Z,7.07
2023-04-10T14:38:25.435Z,7.53
2023-04-10T14:40:53.876Z,6.33
2023-04-10T14:43:23.108Z,6.47
2023-04-10T14:45:50.886Z,6.43
2023-04-10T14:48:19.835Z,7.53
2023-04-10T14:50:48.242Z,5.87
2023-04-10T14:53:16.217Z,7.27
2023-04-10T14:55:43.941Z,7.40
2023-04-10T14:58:11.864Z,8.00
2023-04-10T15:00:41.706Z,7.00
2023-04-10T15:03:09.802Z,8.13
2023-04-10T15:05:38.129Z,7.63
2023-04-10T15:08:06.044Z,7.43
2023-04-10T15:10:33.849Z,7.60
2023-04-10T15:13:01.716Z,7.97
2023-04-10T15:15:29.442Z,9.27
2023-04-10T15:17:58.657Z,7.47
2023-04-10T15:20:26.483Z,7.93
2023-04-10T15:22:54.285Z,8.43
2023-04-10T15:25:22.118Z,7.73
2023-04-10T15:27:49.981Z,8.07
2023-04-10T15:30:17.734Z,7.77
2023-04-10T15:32:45.702Z,6.40
2023-04-10T15:35:14.894Z,6.57
2023-04-10T15:37:43.025Z,7.47
2023-04-10T15:40:11.577Z,6.93
2023-04-10T15:42:39.546Z,7.17
2023-04-10T15:45:08.245Z,6.67
2023-04-10T15:47:36.209Z,6.93
2023-04-10T15:50:04.612Z,6.33
2023-04-10T15:52:33.887Z,8.20
2023-04-10T15:55:01.688Z,7.00
2023-04-10T15:57:29.448Z,6.70
2023-04-10T15:59:58.887Z,6.90
2023-04-10T16:02:26.862Z,7.50
2023-04-10T16:04:55.092Z,7.80
2023-04-10T16:07:23.030Z,7.30
2023-04-10T16:09:53.754Z,7.00
2023-04-10T16:12:23.060Z,6.23
2023-04-10T16:14:50.805Z,7.00
2023-04-10T16:17:18.570Z,6.87
2023-04-10T16:19:46.362Z,6.37
2023-04-10T16:22:14.168Z,6.60
2023-04-10T16:24:41.941Z,6.60
2023-04-10T16:27:11.161Z,7.00
2023-04-10T16:29:39.195Z,7.07
2023-04-10T16:32:07.080Z,10.20
2023-04-10T16:34:35.671Z,6.60
2023-04-10T16:37:03.485Z,7.27
2023-04-10T16:39:31.259Z,7.13
2023-04-10T16:42:00.630Z,7.17
2023-04-10T16:44:29.811Z,6.80
2023-04-10T16:46:57.949Z,7.67
2023-04-10T16:49:25.925Z,7.10
2023-04-10T16:51:53.758Z,7.83
2023-04-10T16:54:21.557Z,7.70
2023-04-10T16:56:49.271Z,7.10
2023-04-10T16:59:17.046Z,6.67
2023-04-10T17:01:46.245Z,7.13
2023-04-10T17:04:16.638Z,6.90
2023-04-10T17:06:44.463Z,23.60
2023-04-10T17:09:12.328Z,9.97
2023-04-10T17:11:44.893Z,7.50
2023-04-10T17:14:13.349Z,8.70
2023-04-10T17:16:41.401Z,6.97
2023-04-10T17:19:10.772Z,8.47
2023-04-10T17:21:38.663Z,7.37
2023-04-10T17:24:06.652Z,7.27
2023-04-10T17:26:34.651Z,9.70
2023-04-10T17:29:02.717Z,8.03
2023-04-10T17:31:31.454Z,7.93
2023-04-10T17:33:59.333Z,7.37
2023-04-10T17:36:29.137Z,7.57
2023-04-10T17:38:57.302Z,6.97
2023-04-10T17:41:28.479Z,7.10
2023-04-10T17:43:56.615Z,6.40
2023-04-10T17:46:24.791Z,7.37
2023-04-10T17:48:53.062Z,6.77
2023-04-10T17:51:21.638Z,7.07
2023-04-10T17:53:51.036Z,7.50
2023-04-10T17:56:20.876Z,7.20
2023-04-10T17:58:48.966Z,6.90
2023-04-10T18:01:22.897Z,6.57
2023-04-10T18:03:50.953Z,6.97
2023-04-10T18:06:18.890Z,6.97
2023-04-10T18:08:46.944Z,7.57
2023-04-10T18:11:16.125Z,11.20
2023-04-10T18:13:44.116Z,7.60
2023-04-10T18:16:12.122Z,8.20
2023-04-10T18:18:41.787Z,7.43
2023-04-10T18:21:10.850Z,7.57
2023-04-10T18:23:39.449Z,8.13
2023-04-10T18:26:07.837Z,9.07
2023-04-10T18:28:37.857Z,8.60
2023-04-10T18:31:06.371Z,7.43
2023-04-10T18:33:34.203Z,8.57
2023-04-10T18:36:03.366Z,7.63
2023-04-10T18:38:31.401Z,7.70
2023-04-10T18:40:59.607Z,7.63
2023-04-10T18:43:28.432Z,8.30
2023-04-10T18:45:58.305Z,8.87
2023-04-10T18:48:26.152Z,8.97
2023-04-10T18:50:54.167Z,6.87
2023-04-10T18:53:22.280Z,7.63
2023-04-10T18:55:51.983Z,7.33
2023-04-10T18:58:20.072Z,7.70
2023-04-10T19:00:47.985Z,7.40
2023-04-10T19:03:17.284Z,7.30
2023-04-10T19:05:45.336Z,7.63
2023-04-10T19:08:14.413Z,8.60
2023-04-10T19:10:43.168Z,7.33
2023-04-10T19:13:12.259Z,7.23
2023-04-10T19:15:42.273Z,7.90
2023-04-10T19:18:10.521Z,7.10
2023-04-10T19:20:50.737Z,7.50
2023-04-10T19:23:20.454Z,7.30
2023-04-10T19:25:48.456Z,8.10
2023-04-10T19:28:16.289Z,7.47
2023-04-10T19:30:44.062Z,7.00
2023-04-10T19:33:11.960Z,6.67
2023-04-10T19:35:41.196Z,6.83
2023-04-10T19:38:09.100Z,7.13
2023-04-10T19:40:37.334Z,7.20
2023-04-10T19:43:05.185Z,7.83
2023-04-10T19:45:33.263Z,6.73
2023-04-10T19:48:01.211Z,7.87
2023-04-10T19:50:30.328Z,7.13
2023-04-10T19:52:59.762Z,6.63
2023-04-10T19:55:27.745Z,7.37
2023-04-10T19:57:55.669Z,6.33
2023-04-10T20:00:23.704Z,6.77
2023-04-10T20:02:51.640Z,6.47
2023-04-10T20:05:19.848Z,6.57
2023-04-10T20:07:47.781Z,6.50
2023-04-10T20:10:16.934Z,6.90
2023-04-10T20:12:44.711Z,6.80
2023-04-10T20:15:13.454Z,6.90
2023-04-10T20:17:41.219Z,7.17
2023-04-10T20:20:09.956Z,6.60
2023-04-10T20:22:37.795Z,6.60
2023-04-10T20:25:06.170Z,6.67
2023-04-10T20:27:35.280Z,5.37
2023-04-10T20:30:03.164Z,6.57
2023-04-10T20:32:30.908Z,5.97
2023-04-10T20:34:58.630Z,5.53
2023-04-10T20:37:26.405Z,6.17
2023-04-10T20:39:54.260Z,6.80
2023-04-10T20:42:23.158Z,6.17
2023-04-10T20:44:52.638Z,5.73
2023-04-10T20:47:20.518Z,5.43
2023-04-10T20:49:48.284Z,5.77
2023-04-10T20:52:16.200Z,5.80
2023-04-10T20:54:43.940Z,5.90
2023-04-10T20:57:25.949Z,5.40
2023-04-10T20:59:55.365Z,5.80
2023-04-10T21:02:23.329Z,6.10
2023-04-10T21:04:52.025Z,6.03
2023-04-10T21:07:19.908Z,6.00
2023-04-10T21:09:47.786Z,6.10
2023-04-10T21:12:15.574Z,5.77
2023-04-10T21:14:43.722Z,5.53
2023-04-10T21:17:12.945Z,5.83
2023-04-10T21:19:40.883Z,5.60
2023-04-10T21:22:10.220Z,5.57
2023-04-10T21:24:38.362Z,6.20
2023-04-10T21:27:06.349Z,5.70
2023-04-10T21:29:34.049Z,6.07
2023-04-10T21:32:01.975Z,6.03
2023-04-10T21:34:31.569Z,6.00
2023-04-10T21:36:59.324Z,6.40
2023-04-10T21:39:27.097Z,6.23
2023-04-10T21:41:54.980Z,6.07
2023-04-10T21:44:22.750Z,6.03
2023-04-10T21:46:50.497Z,6.20
2023-04-10T21:49:18.209Z,6.20
2023-04-10T21:51:47.391Z,6.07
2023-04-10T21:54:15.346Z,7.00
2023-04-10T21:56:43.212Z,8.17
2023-04-10T21:59:11.047Z,6.30
2023-04-10T22:01:41.511Z,6.93
2023-04-10T22:04:09.484Z,6.40
2023-04-10T22:06:37.551Z,6.03
2023-04-10T22:09:06.715Z,6.20
2023-04-10T22:11:37.116Z,5.47
2023-04-10T22:14:15.799Z,5.77
2023-04-10T22:16:45.246Z,6.43
2023-04-10T22:19:13.078Z,6.73
2023-04-10T22:21:40.938Z,6.73
2023-04-10T22:24:10.224Z,5.93
2023-04-10T22:26:38.003Z,6.37
2023-04-10T22:29:05.717Z,6.20
2023-04-10T22:31:33.660Z,7.30
2023-04-10T22:34:01.419Z,6.63
2023-04-10T22:36:33.602Z,6.87
2023-04-10T22:39:01.424Z,6.53
2023-04-10T22:41:31.747Z,6.30
2023-04-10T22:43:59.946Z,5.57
2023-04-10T22:46:27.830Z,7.13
2023-04-10T22:48:58.147Z,6.63
2023-04-10T22:51:26.764Z,6.50
2023-04-10T22:53:54.569Z,7.23
2023-04-10T22:56:24.943Z,5.77
2023-04-10T22:58:54.201Z,6.77
2023-04-10T23:01:22.192Z,7.03
2023-04-10T23:03:52.719Z,6.83
2023-04-10T23:06:20.776Z,6.77
2023-04-10T23:08:48.537Z,6.47
2023-04-10T23:11:16.296Z,6.43
2023-04-10T23:13:44.383Z,6.70
2023-04-10T23:16:13.582Z,6.87
2023-04-10T23:18:41.339Z,6.43
2023-04-10T23:21:09.344Z,6.80
2023-04-10T23:23:37.084Z,6.30
2023-04-10T23:26:05.007Z,6.73
2023-04-10T23:28:32.850Z,7.20
2023-04-10T23:31:00.812Z,6.27
2023-04-10T23:33:29.944Z,6.57
2023-04-10T23:35:57.767Z,7.03
2023-04-10T23:38:25.571Z,6.60
2023-04-10T23:40:53.486Z,6.83
2023-04-10T23:43:21.269Z,6.50
2023-04-10T23:45:48.963Z,7.00
2023-04-10T23:48:16.789Z,6.23
2023-04-10T23:50:45.940Z,7.13
2023-04-10T23:53:14.713Z,7.20
2023-04-10T23:55:42.877Z,7.83
2023-04-10T23:58:10.867Z,6.70
